sensor_id;sensor_type;location;lat;lon;timestamp;P1;durP1;ratioP1;P2;durP2;ratioP2
15716;SDS011;7960;50.908;4.204;2023-05-23T00:01:52;35.23;;;20.87;;
15716;SDS011;7960;50.908;4.204;2023-05-23T00:04:23;36.43;;;20.60;;
15716;SDS011;7960;50.908;4.204;2023-05-23T00:06:51;40.63;;;21.63;;
15716;SDS011;7960;50.908;4.204;2023-05-23T00:09:18;35.70;;;21.97;;
15716;SDS011;7960;50.908;4.204;2023-05-23T00:11:45;39.30;;;22.00;;
15716;SDS011;7960;50.908;4.204;2023-05-23T00:14:12;46.40;;;23.23;;
15716;SDS011;7960;50.908;4.204;2023-05-23T00:16:40;46.60;;;23.93;;
15716;SDS011;7960;50.908;4.204;2023-05-23T00:19:08;44.13;;;22.97;;
15716;SDS011;7960;50.908;4.204;2023-05-23T00:21:37;42.70;;;22.87;;
15716;SDS011;7960;50.908;4.204;2023-05-23T00:24:04;44.30;;;24.47;;
15716;SDS011;7960;50.908;4.204;2023-05-23T00:26:33;45.80;;;22.83;;
15716;SDS011;7960;50.908;4.204;2023-05-23T00:29:01;50.63;;;23.37;;
15716;SDS011;7960;50.908;4.204;2023-05-23T00:31:28;45.67;;;24.10;;
15716;SDS011;7960;50.908;4.204;2023-05-23T00:33:55;46.83;;;25.30;;
15716;SDS011;7960;50.908;4.204;2023-05-23T00:36:22;50.33;;;24.37;;
15716;SDS011;7960;50.908;4.204;2023-05-23T00:38:51;47.50;;;24.87;;
15716;SDS011;7960;50.908;4.204;2023-05-23T00:41:18;50.43;;;25.80;;
15716;SDS011;7960;50.908;4.204;2023-05-23T00:43:45;46.83;;;25.30;;
15716;SDS011;7960;50.908;4.204;2023-05-23T00:46:12;50.83;;;24.23;;
15716;SDS011;7960;50.908;4.204;2023-05-23T00:48:40;47.63;;;24.70;;
15716;SDS011;7960;50.908;4.204;2023-05-23T00:51:07;46.40;;;25.00;;
15716;SDS011;7960;50.908;4.204;2023-05-23T00:53:34;44.47;;;24.90;;
15716;SDS011;7960;50.908;4.204;2023-05-23T00:56:03;40.47;;;24.13;;
15716;SDS011;7960;50.908;4.204;2023-05-23T00:58:31;46.40;;;23.83;;
15716;SDS011;7960;50.908;4.204;2023-05-23T01:00:58;40.03;;;22.37;;
15716;SDS011;7960;50.908;4.204;2023-05-23T01:03:25;39.43;;;23.30;;
15716;SDS011;7960;50.908;4.204;2023-05-23T01:05:54;44.37;;;23.50;;
15716;SDS011;7960;50.908;4.204;2023-05-23T01:08:21;43.83;;;23.10;;
15716;SDS011;7960;50.908;4.204;2023-05-23T01:10:48;41.27;;;22.20;;
15716;SDS011;7960;50.908;4.204;2023-05-23T01:13:26;40.93;;;23.57;;
15716;SDS011;7960;50.908;4.204;2023-05-23T01:15:57;42.73;;;22.07;;
15716;SDS011;7960;50.908;4.204;2023-05-23T01:18:28;51.00;;;24.33;;
15716;SDS011;7960;50.908;4.204;2023-05-23T01:20:58;47.57;;;24.53;;
15716;SDS011;7960;50.908;4.204;2023-05-23T01:23:28;48.97;;;25.47;;
15716;SDS011;7960;50.908;4.204;2023-05-23T01:26:02;42.47;;;24.10;;
15716;SDS011;7960;50.908;4.204;2023-05-23T01:28:32;50.60;;;24.13;;
15716;SDS011;7960;50.908;4.204;2023-05-23T01:31:01;45.97;;;23.73;;
15716;SDS011;7960;50.908;4.204;2023-05-23T01:33:29;42.10;;;23.57;;
15716;SDS011;7960;50.908;4.204;2023-05-23T01:35:58;46.93;;;23.70;;
15716;SDS011;7960;50.908;4.204;2023-05-23T01:38:27;43.70;;;24.40;;
15716;SDS011;7960;50.908;4.204;2023-05-23T01:40:54;46.73;;;25.13;;
15716;SDS011;7960;50.908;4.204;2023-05-23T01:43:22;35.27;;;22.70;;
15716;SDS011;7960;50.908;4.204;2023-05-23T01:45:51;31.23;;;21.50;;
15716;SDS011;7960;50.908;4.204;2023-05-23T01:48:20;34.13;;;21.13;;
15716;SDS011;7960;50.908;4.204;2023-05-23T01:50:47;29.63;;;18.77;;
15716;SDS011;7960;50.908;4.204;2023-05-23T01:53:14;28.20;;;16.77;;
15716;SDS011;7960;50.908;4.204;2023-05-23T01:55:42;27.20;;;18.40;;
15716;SDS011;7960;50.908;4.204;2023-05-23T01:58:10;29.67;;;17.37;;
15716;SDS011;7960;50.908;4.204;2023-05-23T02:00:37;27.20;;;16.60;;
15716;SDS011;7960;50.908;4.204;2023-05-23T02:03:06;22.00;;;15.27;;
15716;SDS011;7960;50.908;4.204;2023-05-23T02:05:33;22.27;;;15.90;;
15716;SDS011;7960;50.908;4.204;2023-05-23T02:08:00;21.77;;;14.70;;
15716;SDS011;7960;50.908;4.204;2023-05-23T02:10:27;21.77;;;14.40;;
15716;SDS011;7960;50.908;4.204;2023-05-23T02:12:55;20.17;;;13.63;;
15716;SDS011;7960;50.908;4.204;2023-05-23T02:15:22;20.10;;;13.47;;
15716;SDS011;7960;50.908;4.204;2023-05-23T02:17:49;18.87;;;13.80;;
15716;SDS011;7960;50.908;4.204;2023-05-23T02:20:18;20.10;;;14.17;;
15716;SDS011;7960;50.908;4.204;2023-05-23T02:22:45;23.20;;;14.27;;
15716;SDS011;7960;50.908;4.204;2023-05-23T02:25:12;23.50;;;14.80;;
15716;SDS011;7960;50.908;4.204;2023-05-23T02:27:39;21.97;;;14.77;;
15716;SDS011;7960;50.908;4.204;2023-05-23T02:30:07;25.67;;;15.17;;
15716;SDS011;7960;50.908;4.204;2023-05-23T02:32:34;25.77;;;15.60;;
15716;SDS011;7960;50.908;4.204;2023-05-23T02:35:02;24.93;;;15.27;;
15716;SDS011;7960;50.908;4.204;2023-05-23T02:37:31;27.27;;;15.40;;
15716;SDS011;7960;50.908;4.204;2023-05-23T02:39:58;27.43;;;14.93;;
15716;SDS011;7960;50.908;4.204;2023-05-23T02:42:25;28.03;;;15.10;;
15716;SDS011;7960;50.908;4.204;2023-05-23T02:44:52;27.70;;;15.40;;
15716;SDS011;7960;50.908;4.204;2023-05-23T02:47:20;24.97;;;15.00;;
15716;SDS011;7960;50.908;4.204;2023-05-23T02:49:47;20.90;;;15.00;;
15716;SDS011;7960;50.908;4.204;2023-05-23T02:52:14;22.20;;;14.50;;
15716;SDS011;7960;50.908;4.204;2023-05-23T02:54:43;25.17;;;15.27;;
15716;SDS011;7960;50.908;4.204;2023-05-23T02:57:10;24.23;;;15.37;;
15716;SDS011;7960;50.908;4.204;2023-05-23T02:59:37;22.07;;;15.70;;
15716;SDS011;7960;50.908;4.204;2023-05-23T03:02:05;23.13;;;15.83;;
15716;SDS011;7960;50.908;4.204;2023-05-23T03:04:32;23.77;;;15.10;;
15716;SDS011;7960;50.908;4.204;2023-05-23T03:06:59;23.90;;;15.40;;
15716;SDS011;7960;50.908;4.204;2023-05-23T03:09:27;26.20;;;16.17;;
15716;SDS011;7960;50.908;4.204;2023-05-23T03:11:56;32.83;;;17.03;;
15716;SDS011;7960;50.908;4.204;2023-05-23T03:14:23;24.90;;;16.60;;
15716;SDS011;7960;50.908;4.204;2023-05-23T03:16:50;30.97;;;17.73;;
15716;SDS011;7960;50.908;4.204;2023-05-23T03:19:17;27.27;;;18.03;;
15716;SDS011;7960;50.908;4.204;2023-05-23T03:21:44;32.00;;;18.37;;
15716;SDS011;7960;50.908;4.204;2023-05-23T03:24:11;33.13;;;18.10;;
15716;SDS011;7960;50.908;4.204;2023-05-23T03:26:39;33.67;;;18.60;;
15716;SDS011;7960;50.908;4.204;2023-05-23T03:29:08;33.40;;;19.53;;
15716;SDS011;7960;50.908;4.204;2023-05-23T03:31:35;38.73;;;19.90;;
15716;SDS011;7960;50.908;4.204;2023-05-23T03:34:03;31.77;;;19.73;;
15716;SDS011;7960;50.908;4.204;2023-05-23T03:36:30;33.87;;;19.87;;
15716;SDS011;7960;50.908;4.204;2023-05-23T03:38:58;30.87;;;20.53;;
15716;SDS011;7960;50.908;4.204;2023-05-23T03:41:25;30.63;;;20.80;;
15716;SDS011;7960;50.908;4.204;2023-05-23T03:43:52;40.07;;;21.53;;
15716;SDS011;7960;50.908;4.204;2023-05-23T03:46:21;40.40;;;22.37;;
15716;SDS011;7960;50.908;4.204;2023-05-23T03:48:48;36.67;;;23.70;;
15716;SDS011;7960;50.908;4.204;2023-05-23T03:51:16;32.63;;;20.17;;
15716;SDS011;7960;50.908;4.204;2023-05-23T03:53:43;36.03;;;20.30;;
15716;SDS011;7960;50.908;4.204;2023-05-23T03:56:10;34.37;;;21.33;;
15716;SDS011;7960;50.908;4.204;2023-05-23T03:58:37;33.30;;;20.43;;
15716;SDS011;7960;50.908;4.204;2023-05-23T04:01:04;32.13;;;20.13;;
15716;SDS011;7960;50.908;4.204;2023-05-23T04:03:33;32.47;;;20.70;;
15716;SDS011;7960;50.908;4.204;2023-05-23T04:06:00;30.97;;;20.97;;
15716;SDS011;7960;50.908;4.204;2023-05-23T04:08:27;33.33;;;21.43;;
15716;SDS011;7960;50.908;4.204;2023-05-23T04:10:57;33.17;;;21.20;;
15716;SDS011;7960;50.908;4.204;2023-05-23T04:13:25;37.10;;;21.53;;
15716;SDS011;7960;50.908;4.204;2023-05-23T04:15:52;30.80;;;19.87;;
15716;SDS011;7960;50.908;4.204;2023-05-23T04:18:20;33.17;;;20.23;;
15716;SDS011;7960;50.908;4.204;2023-05-23T04:20:48;30.07;;;19.97;;
15716;SDS011;7960;50.908;4.204;2023-05-23T04:23:15;30.10;;;19.83;;
15716;SDS011;7960;50.908;4.204;2023-05-23T04:25:43;30.50;;;19.63;;
15716;SDS011;7960;50.908;4.204;2023-05-23T04:28:10;30.77;;;20.00;;
15716;SDS011;7960;50.908;4.204;2023-05-23T04:30:38;29.63;;;18.60;;
15716;SDS011;7960;50.908;4.204;2023-05-23T04:33:06;28.53;;;18.07;;
15716;SDS011;7960;50.908;4.204;2023-05-23T04:35:34;28.90;;;19.63;;
15716;SDS011;7960;50.908;4.204;2023-05-23T04:38:04;23.67;;;16.97;;
15716;SDS011;7960;50.908;4.204;2023-05-23T04:40:31;24.47;;;16.10;;
15716;SDS011;7960;50.908;4.204;2023-05-23T04:42:58;25.17;;;16.30;;
15716;SDS011;7960;50.908;4.204;2023-05-23T04:45:25;23.80;;;16.17;;
15716;SDS011;7960;50.908;4.204;2023-05-23T04:47:52;26.80;;;15.83;;
15716;SDS011;7960;50.908;4.204;2023-05-23T04:50:20;29.30;;;16.33;;
15716;SDS011;7960;50.908;4.204;2023-05-23T04:52:48;34.40;;;18.20;;
15716;SDS011;7960;50.908;4.204;2023-05-23T04:55:16;29.47;;;16.47;;
15716;SDS011;7960;50.908;4.204;2023-05-23T04:57:44;28.90;;;16.73;;
15716;SDS011;7960;50.908;4.204;2023-05-23T05:00:12;29.77;;;16.40;;
15716;SDS011;7960;50.908;4.204;2023-05-23T05:02:40;28.67;;;17.07;;
15716;SDS011;7960;50.908;4.204;2023-05-23T05:05:07;25.93;;;16.57;;
15716;SDS011;7960;50.908;4.204;2023-05-23T05:07:35;32.50;;;16.80;;
15716;SDS011;7960;50.908;4.204;2023-05-23T05:10:02;30.27;;;16.10;;
15716;SDS011;7960;50.908;4.204;2023-05-23T05:12:31;29.47;;;15.00;;
15716;SDS011;7960;50.908;4.204;2023-05-23T05:14:58;23.67;;;13.83;;
15716;SDS011;7960;50.908;4.204;2023-05-23T05:17:25;29.40;;;13.30;;
15716;SDS011;7960;50.908;4.204;2023-05-23T05:19:54;29.00;;;13.10;;
15716;SDS011;7960;50.908;4.204;2023-05-23T05:22:21;25.17;;;12.93;;
15716;SDS011;7960;50.908;4.204;2023-05-23T05:24:49;31.10;;;13.83;;
15716;SDS011;7960;50.908;4.204;2023-05-23T05:27:16;28.00;;;13.00;;
15716;SDS011;7960;50.908;4.204;2023-05-23T05:29:45;28.00;;;12.63;;
15716;SDS011;7960;50.908;4.204;2023-05-23T05:32:12;26.40;;;13.03;;
15716;SDS011;7960;50.908;4.204;2023-05-23T05:34:39;27.30;;;12.63;;
15716;SDS011;7960;50.908;4.204;2023-05-23T05:37:07;26.03;;;13.03;;
15716;SDS011;7960;50.908;4.204;2023-05-23T05:39:38;24.90;;;13.57;;
15716;SDS011;7960;50.908;4.204;2023-05-23T05:42:05;32.33;;;13.77;;
15716;SDS011;7960;50.908;4.204;2023-05-23T05:44:32;25.83;;;13.00;;
15716;SDS011;7960;50.908;4.204;2023-05-23T05:47:01;27.90;;;13.10;;
15716;SDS011;7960;50.908;4.204;2023-05-23T05:49:28;31.60;;;13.43;;
15716;SDS011;7960;50.908;4.204;2023-05-23T05:51:55;25.70;;;12.67;;
15716;SDS011;7960;50.908;4.204;2023-05-23T05:54:22;30.40;;;13.83;;
15716;SDS011;7960;50.908;4.204;2023-05-23T05:56:49;26.23;;;13.40;;
15716;SDS011;7960;50.908;4.204;2023-05-23T05:59:17;28.87;;;13.60;;
15716;SDS011;7960;50.908;4.204;2023-05-23T06:01:44;27.63;;;13.40;;
15716;SDS011;7960;50.908;4.204;2023-05-23T06:04:13;25.83;;;13.67;;
15716;SDS011;7960;50.908;4.204;2023-05-23T06:06:40;28.70;;;14.03;;
15716;SDS011;7960;50.908;4.204;2023-05-23T06:09:07;26.50;;;14.43;;
15716;SDS011;7960;50.908;4.204;2023-05-23T06:11:34;30.07;;;14.70;;
15716;SDS011;7960;50.908;4.204;2023-05-23T06:14:04;24.20;;;12.90;;
15716;SDS011;7960;50.908;4.204;2023-05-23T06:16:31;23.37;;;13.67;;
15716;SDS011;7960;50.908;4.204;2023-05-23T06:18:59;26.17;;;13.63;;
15716;SDS011;7960;50.908;4.204;2023-05-23T06:21:27;26.83;;;12.10;;
15716;SDS011;7960;50.908;4.204;2023-05-23T06:23:55;21.03;;;12.27;;
15716;SDS011;7960;50.908;4.204;2023-05-23T06:26:22;24.57;;;12.10;;
15716;SDS011;7960;50.908;4.204;2023-05-23T06:28:50;17.97;;;10.80;;
15716;SDS011;7960;50.908;4.204;2023-05-23T06:31:17;19.67;;;11.40;;
15716;SDS011;7960;50.908;4.204;2023-05-23T06:33:44;21.10;;;11.63;;
15716;SDS011;7960;50.908;4.204;2023-05-23T06:36:11;18.77;;;11.30;;
15716;SDS011;7960;50.908;4.204;2023-05-23T06:38:40;20.47;;;10.93;;
15716;SDS011;7960;50.908;4.204;2023-05-23T06:41:07;19.07;;;9.70;;
15716;SDS011;7960;50.908;4.204;2023-05-23T06:43:34;16.43;;;9.10;;
15716;SDS011;7960;50.908;4.204;2023-05-23T06:46:01;18.87;;;9.10;;
15716;SDS011;7960;50.908;4.204;2023-05-23T06:48:28;13.40;;;8.97;;
15716;SDS011;7960;50.908;4.204;2023-05-23T06:50:56;13.83;;;8.17;;
15716;SDS011;7960;50.908;4.204;2023-05-23T06:53:23;15.90;;;8.57;;
15716;SDS011;7960;50.908;4.204;2023-05-23T06:55:51;13.40;;;7.90;;
15716;SDS011;7960;50.908;4.204;2023-05-23T06:58:20;13.30;;;7.93;;
15716;SDS011;7960;50.908;4.204;2023-05-23T07:00:50;19.67;;;8.60;;
15716;SDS011;7960;50.908;4.204;2023-05-23T07:03:18;13.00;;;8.23;;
15716;SDS011;7960;50.908;4.204;2023-05-23T07:05:45;14.30;;;8.27;;
15716;SDS011;7960;50.908;4.204;2023-05-23T07:08:12;15.83;;;7.87;;
15716;SDS011;7960;50.908;4.204;2023-05-23T07:10:39;15.83;;;8.73;;
15716;SDS011;7960;50.908;4.204;2023-05-23T07:13:08;19.17;;;9.97;;
15716;SDS011;7960;50.908;4.204;2023-05-23T07:15:35;14.57;;;9.03;;
15716;SDS011;7960;50.908;4.204;2023-05-23T07:18:02;18.67;;;8.67;;
15716;SDS011;7960;50.908;4.204;2023-05-23T07:20:31;14.33;;;8.13;;
15716;SDS011;7960;50.908;4.204;2023-05-23T07:22:59;17.53;;;8.00;;
15716;SDS011;7960;50.908;4.204;2023-05-23T07:25:26;19.97;;;8.87;;
15716;SDS011;7960;50.908;4.204;2023-05-23T07:27:53;18.27;;;9.07;;
15716;SDS011;7960;50.908;4.204;2023-05-23T07:30:21;14.93;;;8.10;;
15716;SDS011;7960;50.908;4.204;2023-05-23T07:32:49;13.50;;;8.13;;
15716;SDS011;7960;50.908;4.204;2023-05-23T07:35:17;18.47;;;8.40;;
15716;SDS011;7960;50.908;4.204;2023-05-23T07:37:48;18.40;;;9.07;;
15716;SDS011;7960;50.908;4.204;2023-05-23T07:40:15;16.20;;;9.00;;
15716;SDS011;7960;50.908;4.204;2023-05-23T07:42:43;18.57;;;9.50;;
15716;SDS011;7960;50.908;4.204;2023-05-23T07:45:10;19.73;;;8.40;;
15716;SDS011;7960;50.908;4.204;2023-05-23T07:47:39;12.63;;;7.97;;
15716;SDS011;7960;50.908;4.204;2023-05-23T07:50:06;17.57;;;9.17;;
15716;SDS011;7960;50.908;4.204;2023-05-23T07:52:34;12.47;;;7.33;;
15716;SDS011;7960;50.908;4.204;2023-05-23T07:55:01;19.37;;;8.10;;
15716;SDS011;7960;50.908;4.204;2023-05-23T07:57:28;16.03;;;8.50;;
15716;SDS011;7960;50.908;4.204;2023-05-23T07:59:56;15.57;;;8.50;;
15716;SDS011;7960;50.908;4.204;2023-05-23T08:02:23;25.77;;;9.13;;
15716;SDS011;7960;50.908;4.204;2023-05-23T08:04:52;14.57;;;8.00;;
15716;SDS011;7960;50.908;4.204;2023-05-23T08:07:21;18.43;;;8.70;;
15716;SDS011;7960;50.908;4.204;2023-05-23T08:09:49;15.53;;;8.53;;
15716;SDS011;7960;50.908;4.204;2023-05-23T08:12:19;17.47;;;8.90;;
15716;SDS011;7960;50.908;4.204;2023-05-23T08:14:46;22.90;;;8.87;;
15716;SDS011;7960;50.908;4.204;2023-05-23T08:17:13;14.43;;;8.97;;
15716;SDS011;7960;50.908;4.204;2023-05-23T08:19:40;15.80;;;8.53;;
15716;SDS011;7960;50.908;4.204;2023-05-23T08:22:09;12.80;;;7.53;;
15716;SDS011;7960;50.908;4.204;2023-05-23T08:24:37;21.70;;;7.30;;
15716;SDS011;7960;50.908;4.204;2023-05-23T08:27:04;16.57;;;7.20;;
15716;SDS011;7960;50.908;4.204;2023-05-23T08:29:32;25.33;;;8.33;;
15716;SDS011;7960;50.908;4.204;2023-05-23T08:32:01;26.07;;;8.43;;
15716;SDS011;7960;50.908;4.204;2023-05-23T08:34:28;31.00;;;9.00;;
15716;SDS011;7960;50.908;4.204;2023-05-23T08:36:55;19.07;;;8.73;;
15716;SDS011;7960;50.908;4.204;2023-05-23T08:39:24;28.03;;;9.67;;
15716;SDS011;7960;50.908;4.204;2023-05-23T08:41:51;17.47;;;8.87;;
15716;SDS011;7960;50.908;4.204;2023-05-23T08:44:18;12.90;;;7.27;;
15716;SDS011;7960;50.908;4.204;2023-05-23T08:46:45;12.70;;;7.23;;
15716;SDS011;7960;50.908;4.204;2023-05-23T08:49:14;14.63;;;6.80;;
15716;SDS011;7960;50.908;4.204;2023-05-23T08:51:43;13.73;;;6.97;;
15716;SDS011;7960;50.908;4.204;2023-05-23T08:54:11;11.10;;;6.97;;
15716;SDS011;7960;50.908;4.204;2023-05-23T08:56:39;16.03;;;7.77;;
15716;SDS011;7960;50.908;4.204;2023-05-23T08:59:08;16.07;;;7.70;;
15716;SDS011;7960;50.908;4.204;2023-05-23T09:01:35;12.80;;;6.77;;
15716;SDS011;7960;50.908;4.204;2023-05-23T09:04:05;14.80;;;6.27;;
15716;SDS011;7960;50.908;4.204;2023-05-23T09:06:33;13.43;;;6.40;;
15716;SDS011;7960;50.908;4.204;2023-05-23T09:09:01;15.53;;;6.93;;
15716;SDS011;7960;50.908;4.204;2023-05-23T09:11:28;18.10;;;6.90;;
15716;SDS011;7960;50.908;4.204;2023-05-23T09:14:00;10.33;;;6.17;;
15716;SDS011;7960;50.908;4.204;2023-05-23T09:16:32;165.57;;;21.07;;
15716;SDS011;7960;50.908;4.204;2023-05-23T09:18:59;23.83;;;8.30;;
15716;SDS011;7960;50.908;4.204;2023-05-23T09:21:35;20.73;;;7.77;;
15716;SDS011;7960;50.908;4.204;2023-05-23T09:24:03;14.97;;;6.60;;
15716;SDS011;7960;50.908;4.204;2023-05-23T09:26:31;11.47;;;6.40;;
15716;SDS011;7960;50.908;4.204;2023-05-23T09:28:59;8.77;;;5.10;;
15716;SDS011;7960;50.908;4.204;2023-05-23T09:31:27;21.20;;;5.33;;
15716;SDS011;7960;50.908;4.204;2023-05-23T09:33:54;9.83;;;5.77;;
15716;SDS011;7960;50.908;4.204;2023-05-23T09:36:21;10.70;;;5.30;;
15716;SDS011;7960;50.908;4.204;2023-05-23T09:38:48;10.57;;;5.20;;
15716;SDS011;7960;50.908;4.204;2023-05-23T09:41:18;13.43;;;4.90;;
15716;SDS011;7960;50.908;4.204;2023-05-23T09:43:48;14.30;;;5.63;;
15716;SDS011;7960;50.908;4.204;2023-05-23T09:46:18;7.93;;;5.47;;
15716;SDS011;7960;50.908;4.204;2023-05-23T09:48:46;9.60;;;5.90;;
15716;SDS011;7960;50.908;4.204;2023-05-23T09:51:16;11.40;;;6.13;;
15716;SDS011;7960;50.908;4.204;2023-05-23T09:53:44;11.77;;;5.70;;
15716;SDS011;7960;50.908;4.204;2023-05-23T09:56:11;10.93;;;6.27;;
15716;SDS011;7960;50.908;4.204;2023-05-23T09:58:39;14.43;;;5.97;;
15716;SDS011;7960;50.908;4.204;2023-05-23T10:01:09;10.10;;;6.33;;
15716;SDS011;7960;50.908;4.204;2023-05-23T10:03:41;9.63;;;5.87;;
15716;SDS011;7960;50.908;4.204;2023-05-23T10:06:12;9.27;;;5.60;;
15716;SDS011;7960;50.908;4.204;2023-05-23T10:08:44;15.23;;;5.60;;
15716;SDS011;7960;50.908;4.204;2023-05-23T10:13:56;7.97;;;5.60;;
15716;SDS011;7960;50.908;4.204;2023-05-23T10:16:26;11.27;;;5.23;;
15716;SDS011;7960;50.908;4.204;2023-05-23T10:18:56;8.07;;;5.10;;
15716;SDS011;7960;50.908;4.204;2023-05-23T10:21:26;10.50;;;4.97;;
15716;SDS011;7960;50.908;4.204;2023-05-23T10:23:57;9.27;;;4.80;;
15716;SDS011;7960;50.908;4.204;2023-05-23T10:26:25;9.53;;;5.10;;
15716;SDS011;7960;50.908;4.204;2023-05-23T10:28:53;7.70;;;5.00;;
15716;SDS011;7960;50.908;4.204;2023-05-23T10:31:20;9.53;;;5.07;;
15716;SDS011;7960;50.908;4.204;2023-05-23T10:33:52;9.80;;;4.83;;
15716;SDS011;7960;50.908;4.204;2023-05-23T10:36:26;6.80;;;4.63;;
15716;SDS011;7960;50.908;4.204;2023-05-23T10:38:57;8.30;;;5.30;;
15716;SDS011;7960;50.908;4.204;2023-05-23T10:41:26;8.93;;;5.50;;
15716;SDS011;7960;50.908;4.204;2023-05-23T10:43:56;7.80;;;4.97;;
15716;SDS011;7960;50.908;4.204;2023-05-23T10:46:38;12.60;;;4.30;;
15716;SDS011;7960;50.908;4.204;2023-05-23T10:49:15;9.33;;;4.43;;
15716;SDS011;7960;50.908;4.204;2023-05-23T10:51:44;10.50;;;4.30;;
15716;SDS011;7960;50.908;4.204;2023-05-23T10:54:12;12.27;;;4.33;;
15716;SDS011;7960;50.908;4.204;2023-05-23T10:56:40;11.93;;;4.83;;
15716;SDS011;7960;50.908;4.204;2023-05-23T10:59:08;7.93;;;4.27;;
15716;SDS011;7960;50.908;4.204;2023-05-23T11:01:45;12.80;;;4.33;;
15716;SDS011;7960;50.908;4.204;2023-05-23T11:04:13;12.30;;;4.47;;
15716;SDS011;7960;50.908;4.204;2023-05-23T11:06:40;5.27;;;3.77;;
15716;SDS011;7960;50.908;4.204;2023-05-23T11:09:10;11.73;;;4.23;;
15716;SDS011;7960;50.908;4.204;2023-05-23T11:11:50;18.20;;;5.27;;
15716;SDS011;7960;50.908;4.204;2023-05-23T11:14:17;12.90;;;4.50;;
15716;SDS011;7960;50.908;4.204;2023-05-23T11:16:45;13.63;;;4.13;;
15716;SDS011;7960;50.908;4.204;2023-05-23T11:19:24;12.63;;;3.87;;
15716;SDS011;7960;50.908;4.204;2023-05-23T11:21:53;11.37;;;4.27;;
15716;SDS011;7960;50.908;4.204;2023-05-23T11:24:22;13.53;;;4.67;;
15716;SDS011;7960;50.908;4.204;2023-05-23T11:26:52;13.00;;;4.33;;
15716;SDS011;7960;50.908;4.204;2023-05-23T11:29:24;11.63;;;4.47;;
15716;SDS011;7960;50.908;4.204;2023-05-23T11:31:51;12.17;;;4.13;;
15716;SDS011;7960;50.908;4.204;2023-05-23T11:34:18;11.70;;;4.00;;
15716;SDS011;7960;50.908;4.204;2023-05-23T11:36:46;16.63;;;5.03;;
15716;SDS011;7960;50.908;4.204;2023-05-23T11:39:13;12.60;;;4.10;;
15716;SDS011;7960;50.908;4.204;2023-05-23T11:41:42;8.83;;;4.10;;
15716;SDS011;7960;50.908;4.204;2023-05-23T11:44:09;14.60;;;4.43;;
15716;SDS011;7960;50.908;4.204;2023-05-23T11:46:37;7.73;;;3.83;;
15716;SDS011;7960;50.908;4.204;2023-05-23T11:49:09;14.13;;;4.73;;
15716;SDS011;7960;50.908;4.204;2023-05-23T11:51:36;16.53;;;4.83;;
15716;SDS011;7960;50.908;4.204;2023-05-23T11:54:03;11.13;;;4.63;;
15716;SDS011;7960;50.908;4.204;2023-05-23T11:56:37;11.17;;;4.43;;
15716;SDS011;7960;50.908;4.204;2023-05-23T11:59:06;14.53;;;5.10;;
15716;SDS011;7960;50.908;4.204;2023-05-23T12:01:35;13.73;;;5.03;;
15716;SDS011;7960;50.908;4.204;2023-05-23T12:04:08;11.50;;;4.70;;
15716;SDS011;7960;50.908;4.204;2023-05-23T12:06:36;13.13;;;4.53;;
15716;SDS011;7960;50.908;4.204;2023-05-23T12:09:04;10.67;;;4.10;;
15716;SDS011;7960;50.908;4.204;2023-05-23T12:11:31;20.03;;;4.80;;
15716;SDS011;7960;50.908;4.204;2023-05-23T12:13:59;8.80;;;4.53;;
15716;SDS011;7960;50.908;4.204;2023-05-23T12:16:31;10.73;;;4.40;;
15716;SDS011;7960;50.908;4.204;2023-05-23T12:18:59;11.80;;;5.10;;
15716;SDS011;7960;50.908;4.204;2023-05-23T12:21:31;11.57;;;4.73;;
15716;SDS011;7960;50.908;4.204;2023-05-23T12:24:10;11.17;;;4.80;;
15716;SDS011;7960;50.908;4.204;2023-05-23T12:26:44;17.60;;;4.43;;
15716;SDS011;7960;50.908;4.204;2023-05-23T12:29:11;15.73;;;4.70;;
15716;SDS011;7960;50.908;4.204;2023-05-23T12:31:40;17.63;;;4.77;;
15716;SDS011;7960;50.908;4.204;2023-05-23T12:34:07;11.47;;;5.17;;
15716;SDS011;7960;50.908;4.204;2023-05-23T12:36:37;14.17;;;4.67;;
15716;SDS011;7960;50.908;4.204;2023-05-23T12:39:06;15.07;;;4.73;;
15716;SDS011;7960;50.908;4.204;2023-05-23T12:41:34;11.20;;;4.60;;
15716;SDS011;7960;50.908;4.204;2023-05-23T12:44:01;9.63;;;4.37;;
15716;SDS011;7960;50.908;4.204;2023-05-23T12:46:29;13.17;;;5.13;;
15716;SDS011;7960;50.908;4.204;2023-05-23T12:48:57;10.67;;;4.27;;
15716;SDS011;7960;50.908;4.204;2023-05-23T12:51:24;10.57;;;4.33;;
15716;SDS011;7960;50.908;4.204;2023-05-23T12:53:52;7.87;;;4.20;;
15716;SDS011;7960;50.908;4.204;2023-05-23T12:56:20;12.60;;;4.93;;
15716;SDS011;7960;50.908;4.204;2023-05-23T12:58:48;12.83;;;4.77;;
15716;SDS011;7960;50.908;4.204;2023-05-23T13:01:15;14.10;;;4.77;;
15716;SDS011;7960;50.908;4.204;2023-05-23T13:03:42;17.60;;;4.80;;
15716;SDS011;7960;50.908;4.204;2023-05-23T13:06:11;12.27;;;4.90;;
15716;SDS011;7960;50.908;4.204;2023-05-23T13:08:38;20.60;;;4.77;;
15716;SDS011;7960;50.908;4.204;2023-05-23T13:11:05;24.70;;;6.93;;
15716;SDS011;7960;50.908;4.204;2023-05-23T13:13:32;11.60;;;4.23;;
15716;SDS011;7960;50.908;4.204;2023-05-23T13:16:00;11.97;;;4.43;;
15716;SDS011;7960;50.908;4.204;2023-05-23T13:18:27;18.43;;;4.87;;
15716;SDS011;7960;50.908;4.204;2023-05-23T13:20:54;10.13;;;4.07;;
15716;SDS011;7960;50.908;4.204;2023-05-23T13:23:23;12.63;;;4.07;;
15716;SDS011;7960;50.908;4.204;2023-05-23T13:25:50;12.23;;;4.43;;
15716;SDS011;7960;50.908;4.204;2023-05-23T13:28:18;11.93;;;4.20;;
15716;SDS011;7960;50.908;4.204;2023-05-23T13:30:45;11.00;;;3.80;;
15716;SDS011;7960;50.908;4.204;2023-05-23T13:33:12;26.77;;;5.57;;
15716;SDS011;7960;50.908;4.204;2023-05-23T13:35:39;17.40;;;5.20;;
15716;SDS011;7960;50.908;4.204;2023-05-23T13:38:06;11.23;;;4.70;;
15716;SDS011;7960;50.908;4.204;2023-05-23T13:40:35;14.53;;;5.00;;
15716;SDS011;7960;50.908;4.204;2023-05-23T13:43:02;12.97;;;5.03;;
15716;SDS011;7960;50.908;4.204;2023-05-23T13:45:30;16.00;;;5.33;;
15716;SDS011;7960;50.908;4.204;2023-05-23T13:47:57;14.47;;;4.60;;
15716;SDS011;7960;50.908;4.204;2023-05-23T13:50:25;25.67;;;5.13;;
15716;SDS011;7960;50.908;4.204;2023-05-23T13:52:52;17.63;;;4.70;;
15716;SDS011;7960;50.908;4.204;2023-05-23T13:55:20;31.27;;;5.63;;
15716;SDS011;7960;50.908;4.204;2023-05-23T13:57:48;14.93;;;4.90;;
15716;SDS011;7960;50.908;4.204;2023-05-23T14:00:16;12.10;;;4.70;;
15716;SDS011;7960;50.908;4.204;2023-05-23T14:02:43;19.77;;;5.03;;
15716;SDS011;7960;50.908;4.204;2023-05-23T14:05:10;16.90;;;4.60;;
15716;SDS011;7960;50.908;4.204;2023-05-23T14:07:37;22.33;;;5.60;;
15716;SDS011;7960;50.908;4.204;2023-05-23T14:10:05;12.13;;;4.00;;
15716;SDS011;7960;50.908;4.204;2023-05-23T14:12:33;8.73;;;4.20;;
15716;SDS011;7960;50.908;4.204;2023-05-23T14:15:02;14.60;;;4.70;;
15716;SDS011;7960;50.908;4.204;2023-05-23T14:17:29;8.67;;;4.10;;
15716;SDS011;7960;50.908;4.204;2023-05-23T14:19:56;10.93;;;3.87;;
15716;SDS011;7960;50.908;4.204;2023-05-23T14:22:23;10.80;;;4.30;;
15716;SDS011;7960;50.908;4.204;2023-05-23T14:24:51;15.17;;;4.80;;
15716;SDS011;7960;50.908;4.204;2023-05-23T14:27:18;13.57;;;5.57;;
15716;SDS011;7960;50.908;4.204;2023-05-23T14:29:45;10.17;;;4.13;;
15716;SDS011;7960;50.908;4.204;2023-05-23T14:32:15;11.97;;;4.20;;
15716;SDS011;7960;50.908;4.204;2023-05-23T14:34:42;12.63;;;3.83;;
15716;SDS011;7960;50.908;4.204;2023-05-23T14:37:09;99.00;;;12.77;;
15716;SDS011;7960;50.908;4.204;2023-05-23T14:39:36;11.63;;;3.97;;
15716;SDS011;7960;50.908;4.204;2023-05-23T14:42:04;9.93;;;4.00;;
15716;SDS011;7960;50.908;4.204;2023-05-23T14:44:31;10.07;;;3.60;;
15716;SDS011;7960;50.908;4.204;2023-05-23T14:46:58;9.73;;;3.60;;
15716;SDS011;7960;50.908;4.204;2023-05-23T14:49:27;9.13;;;3.83;;
15716;SDS011;7960;50.908;4.204;2023-05-23T14:51:54;7.33;;;3.20;;